Time;durP1;ratioP1;P1;durP2;ratioP2;P2;SDS_P1;SDS_P2;PMS_P1;PMS_P2;Temp;Humidity;BMP_temperature;BMP_pressure;BME280_temperature;BME280_humidity;BME280_pressure;Samples;Min_cycle;Max_cycle;Signal;HPM_P1;HPM_P2
2020/12/23 00:01:19;;;;;;;24.88;11.80;;;;;;;11.86;100.00;100904.03;4988350;28;20039;-73
2020/12/23 00:03:44;;;;;;;25.67;12.38;;;;;;;11.80;100.00;100892.81;4987907;28;20026;-73
2020/12/23 00:06:09;;;;;;;28.77;14.23;;;;;;;11.81;100.00;100889.16;4987068;28;20580;-73
2020/12/23 00:08:35;;;;;;;31.27;13.45;;;;;;;11.76;100.00;100881.41;4987695;28;20093;-73
2020/12/23 00:11:00;;;;;;;31.02;15.57;;;;;;;11.86;100.00;100890.59;4970022;28;20099;-73
2020/12/23 00:13:27;;;;;;;35.03;14.98;;;;;;;11.82;100.00;100891.75;4969020;28;20679;-73
2020/12/23 00:15:53;;;;;;;29.98;14.85;;;;;;;11.73;100.00;100897.72;4986384;28;20231;-73
2020/12/23 00:18:18;;;;;;;37.17;16.50;;;;;;;11.73;100.00;100886.94;4989751;28;20038;-73
2020/12/23 00:20:44;;;;;;;34.25;16.58;;;;;;;11.79;100.00;100886.56;4984924;28;20042;-73
2020/12/23 00:23:09;;;;;;;40.20;16.75;;;;;;;11.83;100.00;100898.00;4972442;28;20113;-73
2020/12/23 00:25:35;;;;;;;33.72;16.58;;;;;;;11.74;100.00;100894.97;4986082;28;20069;-73
2020/12/23 00:28:00;;;;;;;38.10;17.10;;;;;;;11.79;100.00;100891.94;4984362;28;20041;-73
2020/12/23 00:30:26;;;;;;;37.13;16.73;;;;;;;11.76;100.00;100892.19;4986258;28;20030;-73
2020/12/23 00:32:52;;;;;;;41.60;16.10;;;;;;;11.75;100.00;100879.69;4986655;28;20042;-72
2020/12/23 00:35:17;;;;;;;40.83;15.63;;;;;;;11.77;100.00;100879.59;5002020;28;20065;-73
2020/12/23 00:37:43;;;;;;;32.55;15.13;;;;;;;11.72;100.00;100885.25;4986027;28;20084;-73
2020/12/23 00:40:08;;;;;;;41.60;16.00;;;;;;;11.67;100.00;100873.91;4970671;28;20448;-73
2020/12/23 00:42:34;;;;;;;39.78;15.82;;;;;;;11.69;100.00;100880.06;4981929;28;20395;-73
2020/12/23 00:44:59;;;;;;;36.83;16.17;;;;;;;11.66;100.00;100885.66;4983329;28;20038;-73
2020/12/23 00:47:25;;;;;;;31.27;14.23;;;;;;;11.65;100.00;100870.47;4990925;28;20130;-72
2020/12/23 00:49:51;;;;;;;35.50;15.15;;;;;;;11.65;100.00;100878.56;4997247;28;20061;-73
2020/12/23 00:52:16;;;;;;;38.65;15.05;;;;;;;11.66;100.00;100864.16;4969876;28;20399;-73
2020/12/23 00:54:42;;;;;;;32.55;14.50;;;;;;;11.66;100.00;100874.91;4987731;28;20026;-72
2020/12/23 00:57:11;;;;;;;33.35;14.32;;;;;;;11.66;100.00;100874.91;4988884;28;20031;-73
2020/12/23 00:59:36;;;;;;;31.98;13.68;;;;;;;11.63;100.00;100875.09;4968924;28;20088;-73
2020/12/23 01:02:03;;;;;;;30.30;13.18;;;;;;;11.62;100.00;100874.22;4979728;28;20029;-72
2020/12/23 01:04:29;;;;;;;37.45;14.52;;;;;;;11.62;100.00;100871.53;4991130;28;20038;-73
2020/12/23 01:06:57;;;;;;;36.22;15.65;;;;;;;11.58;100.00;100878.09;4993727;28;20038;-73
2020/12/23 01:09:22;;;;;;;44.60;17.40;;;;;;;11.57;100.00;100875.50;4986808;28;20034;-73
2020/12/23 01:11:49;;;;;;;34.70;14.45;;;;;;;11.57;100.00;100875.50;4979405;28;20030;-73
2020/12/23 01:14:15;;;;;;;38.63;16.35;;;;;;;11.58;100.00;100871.84;4992198;28;20038;-72
2020/12/23 01:16:41;;;;;;;37.72;15.32;;;;;;;11.58;100.00;100878.09;4989035;28;20034;-73
2020/12/23 01:19:06;;;;;;;37.22;16.30;;;;;;;11.58;100.00;100871.84;4974519;28;20030;-72
2020/12/23 01:21:31;;;;;;;36.17;15.57;;;;;;;11.58;100.00;100871.84;4992735;28;20526;-73
2020/12/23 01:23:57;;;;;;;39.33;17.10;;;;;;;11.65;100.00;100867.78;4978655;28;20036;-73
2020/12/23 01:26:22;;;;;;;35.70;18.55;;;;;;;11.58;100.00;100874.53;5008075;28;20494;-73
2020/12/23 01:28:48;;;;;;;34.78;17.23;;;;;;;11.56;100.00;100869.25;4989339;28;20024;-72
2020/12/23 01:31:13;;;;;;;38.47;18.75;;;;;;;11.56;100.00;100885.38;4987593;28;20030;-72
2020/12/23 01:33:39;;;;;;;44.20;18.65;;;;;;;11.57;100.00;100888.94;5000500;28;20069;-73
2020/12/23 01:36:04;;;;;;;42.25;18.63;;;;;;;11.59;100.00;100889.72;4974188;28;20030;-73
2020/12/23 01:38:29;;;;;;;40.38;19.80;;;;;;;11.59;100.00;100887.03;4973444;28;20034;-73
2020/12/23 01:40:57;;;;;;;43.92;20.25;;;;;;;11.59;100.00;100895.09;4982601;28;20131;-73
2020/12/23 01:43:22;;;;;;;36.13;18.70;;;;;;;11.58;100.00;100890.66;4994023;28;20026;-73
2020/12/23 01:45:48;;;;;;;39.47;19.70;;;;;;;11.57;100.00;100897.00;4976629;28;20030;-72
2020/12/23 01:48:19;;;;;;;35.65;18.80;;;;;;;11.58;100.00;100898.72;5009016;28;20023;-73
2020/12/23 01:50:45;;;;;;;39.40;18.83;;;;;;;11.58;100.00;100893.34;4989752;28;20037;-73
2020/12/23 01:53:11;;;;;;;43.10;20.20;;;;;;;11.66;100.00;100891.03;5005110;28;20034;-73
2020/12/23 01:55:36;;;;;;;36.78;20.50;;;;;;;11.67;100.00;100893.59;4972523;28;20038;-72
2020/12/23 01:58:02;;;;;;;41.28;20.92;;;;;;;11.64;100.00;100885.75;4988586;28;20034;-73
2020/12/23 02:00:28;;;;;;;38.17;20.08;;;;;;;11.61;100.00;100877.88;4975504;28;20038;-73
2020/12/23 02:02:56;;;;;;;44.95;20.15;;;;;;;11.62;100.00;100870.66;4990674;28;20053;-73
2020/12/23 02:05:22;;;;;;;37.33;20.45;;;;;;;11.59;100.00;100869.06;4973003;28;20557;-72
2020/12/23 02:07:49;;;;;;;38.30;18.35;;;;;;;11.59;100.00;100857.44;5002994;28;20109;-73
2020/12/23 02:10:14;;;;;;;38.85;20.85;;;;;;;11.61;100.00;100861.75;4992344;28;20044;-73
2020/12/23 02:12:40;;;;;;;39.28;20.42;;;;;;;11.63;100.00;100858.97;4988460;28;20497;-73
2020/12/23 02:15:13;;;;;;;36.20;19.40;;;;;;;11.57;100.00;100864.75;4996734;28;20034;-73
2020/12/23 02:17:39;;;;;;;32.85;18.13;;;;;;;11.54;100.00;100864.97;4981902;28;20030;-73
2020/12/23 02:20:07;;;;;;;36.33;18.80;;;;;;;11.53;100.00;100857.84;4989207;28;20034;-73
2020/12/23 02:22:33;;;;;;;34.90;19.75;;;;;;;11.52;100.00;100853.44;4973000;28;20046;-73
2020/12/23 02:24:58;;;;;;;35.28;18.48;;;;;;;11.47;100.00;100844.81;4975331;28;20042;-72
2020/12/23 02:27:24;;;;;;;39.13;18.67;;;;;;;11.47;100.00;100852.88;4975658;28;20026;-73
2020/12/23 02:29:56;;;;;;;39.63;20.00;;;;;;;11.52;100.00;100845.38;4987550;28;20057;-73
2020/12/23 02:32:22;;;;;;;32.15;18.45;;;;;;;11.51;100.00;100836.44;4989531;28;20034;-73
2020/12/23 02:34:48;;;;;;;43.35;20.13;;;;;;;11.55;100.00;100829.88;4988636;28;20049;-73
2020/12/23 02:37:14;;;;;;;43.67;20.15;;;;;;;11.61;100.00;100829.47;4989618;28;20022;-72
2020/12/23 02:39:42;;;;;;;45.03;21.20;;;;;;;11.59;100.00;100825.19;4987357;28;20061;-73
2020/12/23 02:42:08;;;;;;;42.67;22.27;;;;;;;11.57;100.00;100822.59;4972096;28;20027;-73
2020/12/23 02:44:34;;;;;;;46.45;24.20;;;;;;;11.61;100.00;100813.34;4990752;28;20026;-72
2020/12/23 02:47:02;;;;;;;53.38;24.73;;;;;;;11.64;100.00;100814.97;4988394;28;20125;-72
2020/12/23 02:49:28;;;;;;;44.05;22.65;;;;;;;11.53;100.00;100820.22;4971331;28;20041;-72
2020/12/23 02:51:54;;;;;;;41.97;20.60;;;;;;;11.47;100.00;100820.63;4990124;28;20061;-72
2020/12/23 02:54:20;;;;;;;40.58;21.63;;;;;;;11.44;100.00;100804.69;4991110;28;20110;-72
2020/12/23 02:56:46;;;;;;;36.50;20.45;;;;;;;11.42;100.00;100817.38;4996282;28;20122;-72
2020/12/23 02:59:11;;;;;;;42.20;20.80;;;;;;;11.39;100.00;100814.88;4990274;28;20088;-73
2020/12/23 03:01:37;;;;;;;39.28;21.70;;;;;;;11.42;100.00;100814.69;4991391;28;20045;-73
2020/12/23 03:04:04;;;;;;;38.85;22.02;;;;;;;11.40;100.00;100808.56;4990262;28;20038;-73
2020/12/23 03:06:30;;;;;;;35.40;21.13;;;;;;;11.38;100.00;100810.47;4989312;28;20560;-73
2020/12/23 03:08:55;;;;;;;39.85;20.17;;;;;;;11.38;100.00;100821.22;4978278;28;20038;-73
2020/12/23 03:11:21;;;;;;;36.50;20.90;;;;;;;11.36;100.00;100814.13;4989796;28;20502;-73
2020/12/23 03:13:46;;;;;;;36.70;20.25;;;;;;;11.45;100.00;100815.34;4988818;28;20026;-73
2020/12/23 03:16:12;;;;;;;32.33;20.50;;;;;;;11.47;100.00;100815.25;4988044;28;20038;-73
2020/12/23 03:18:39;;;;;;;37.33;21.85;;;;;;;11.44;100.00;100808.25;4988234;28;20479;-73
2020/12/23 03:21:08;;;;;;;40.45;20.40;;;;;;;11.46;100.00;100805.47;4989425;28;20036;-72
2020/12/23 03:23:35;;;;;;;34.40;19.73;;;;;;;11.45;100.00;100801.91;4986642;28;20481;-73
2020/12/23 03:26:01;;;;;;;32.58;17.88;;;;;;;11.50;100.00;100799.78;4994519;28;20038;-73
2020/12/23 03:28:27;;;;;;;33.17;17.90;;;;;;;11.48;100.00;100795.47;4992375;28;20034;-73
2020/12/23 03:30:52;;;;;;;30.23;17.05;;;;;;;11.43;100.00;100794.91;4989296;28;20112;-72
2020/12/23 03:33:18;;;;;;;39.75;18.05;;;;;;;11.51;100.00;100795.25;4995033;28;20038;-73
2020/12/23 03:35:43;;;;;;;29.95;17.85;;;;;;;11.57;100.00;100803.78;4987708;28;20038;-72
2020/12/23 03:38:09;;;;;;;27.55;17.73;;;;;;;11.49;100.00;100805.25;4996226;28;20099;-72
2020/12/23 03:40:34;;;;;;;28.88;15.55;;;;;;;11.50;100.00;100796.22;4994998;28;20038;-73
2020/12/23 03:43:00;;;;;;;24.55;15.32;;;;;;;11.46;100.00;100797.41;4969926;28;20030;-72
2020/12/23 03:45:26;;;;;;;25.33;15.18;;;;;;;11.46;100.00;100792.03;4987411;28;20038;-72
2020/12/23 03:47:52;;;;;;;24.98;14.35;;;;;;;11.51;100.00;100789.88;4970442;28;20052;-72
2020/12/23 03:50:17;;;;;;;28.00;15.75;;;;;;;11.57;100.00;100789.47;4970713;28;20089;-73
2020/12/23 03:52:42;;;;;;;26.65;14.55;;;;;;;11.50;100.00;100788.16;4987004;28;20026;-72
2020/12/23 03:55:08;;;;;;;27.20;14.98;;;;;;;11.55;100.00;100783.31;4990797;28;20038;-73
2020/12/23 03:57:34;;;;;;;24.52;13.93;;;;;;;11.57;100.00;100778.72;4970285;28;20088;-73
2020/12/23 03:59:59;;;;;;;29.60;13.00;;;;;;;11.57;100.00;100779.59;4974374;28;20038;-73
2020/12/23 04:02:24;;;;;;;19.92;12.20;;;;;;;11.57;100.00;100776.03;4991916;28;20042;-72
2020/12/23 04:04:50;;;;;;;21.90;13.57;;;;;;;11.45;100.00;100775.03;4991581;28;21639;-73
2020/12/23 04:07:15;;;;;;;22.88;12.93;;;;;;;11.48;100.00;100779.34;4995255;28;20037;-72
2020/12/23 04:09:40;;;;;;;25.77;12.93;;;;;;;11.49;100.00;100786.41;4975375;28;20042;-72
2020/12/23 04:12:06;;;;;;;38.38;20.30;;;;;;;11.46;100.00;100786.66;4989843;28;20036;-72
2020/12/23 04:14:31;;;;;;;28.02;14.63;;;;;;;11.47;100.00;100783.00;4988838;28;20451;-72
2020/12/23 04:16:56;;;;;;;20.23;11.15;;;;;;;11.63;100.00;100783.69;4992780;28;20034;-73
2020/12/23 04:19:22;;;;;;;20.45;9.23;;;;;;;11.68;100.00;100776.16;4988210;28;20106;-73
2020/12/23 04:21:47;;;;;;;19.38;8.73;;;;;;;11.68;100.00;100777.03;4971036;28;20081;-73
2020/12/23 04:24:12;;;;;;;16.73;9.05;;;;;;;11.63;100.00;100767.53;4969342;28;20065;-73
2020/12/23 04:26:38;;;;;;;21.00;9.98;;;;;;;11.53;100.00;100772.69;4988803;28;20034;-72
2020/12/23 04:29:03;;;;;;;20.02;9.27;;;;;;;11.63;100.00;100767.53;4986013;28;20034;-73
2020/12/23 04:31:29;;;;;;;20.42;9.32;;;;;;;11.56;100.00;100774.31;4988300;28;20061;-73
2020/12/23 04:33:54;;;;;;;31.08;14.40;;;;;;;11.63;100.00;100767.53;4988660;28;20042;-73
2020/12/23 04:36:20;;;;;;;28.08;12.68;;;;;;;11.63;100.00;100760.34;4991398;28;20073;-72
2020/12/23 04:38:45;;;;;;;20.38;10.60;;;;;;;11.59;100.00;100771.41;4989910;28;20509;-72
2020/12/23 04:41:11;;;;;;;18.02;7.90;;;;;;;11.62;100.00;100760.44;4993298;28;21067;-73
2020/12/23 04:43:37;;;;;;;16.50;7.85;;;;;;;11.63;100.00;100754.97;4993933;28;20034;-72
2020/12/23 04:46:02;;;;;;;16.52;7.25;;;;;;;11.60;100.00;100746.25;5005028;28;20030;-71
2020/12/23 04:48:31;;;;;;;17.27;6.97;;;;;;;11.56;100.00;100750.09;4993041;28;20478;-71
2020/12/23 04:50:57;;;;;;;12.65;6.40;;;;;;;11.54;100.00;100746.69;4976075;28;20038;-73
2020/12/23 04:53:24;;;;;;;15.00;6.25;;;;;;;11.54;100.00;100749.38;4992967;28;20057;-72
2020/12/23 04:55:50;;;;;;;11.80;6.07;;;;;;;11.54;100.00;100754.75;4973284;28;20513;-71
2020/12/23 04:58:15;;;;;;;13.13;5.50;;;;;;;11.60;100.00;100746.25;4967864;28;20054;-72
2020/12/23 05:00:41;;;;;;;13.40;6.45;;;;;;;11.59;100.00;100740.03;4984680;28;20030;-72
2020/12/23 05:03:06;;;;;;;13.95;5.80;;;;;;;11.54;100.00;100746.69;4991970;28;20510;-71
2020/12/23 05:05:32;;;;;;;16.08;6.25;;;;;;;11.51;100.00;100745.03;4991284;28;20053;-72
2020/12/23 05:07:58;;;;;;;11.38;6.00;;;;;;;11.53;100.00;100739.56;4994347;28;20035;-72
2020/12/23 05:10:28;;;;;;;13.75;6.07;;;;;;;11.55;100.00;100732.25;4991116;28;20030;-72
2020/12/23 05:12:55;;;;;;;12.27;5.90;;;;;;;11.55;100.00;100733.09;4991313;28;20034;-73
2020/12/23 05:15:22;;;;;;;12.68;6.85;;;;;;;11.53;100.00;100729.69;4992278;28;20069;-72
2020/12/23 05:17:52;;;;;;;15.45;5.97;;;;;;;11.54;100.00;100730.56;4987958;28;20689;-71
2020/12/23 05:20:18;;;;;;;12.10;6.28;;;;;;;11.55;100.00;100726.88;4990860;28;20042;-72
2020/12/23 05:22:46;;;;;;;10.80;5.65;;;;;;;11.52;100.00;100727.09;4992888;28;20549;-71
2020/12/23 05:25:13;;;;;;;11.68;6.13;;;;;;;11.53;100.00;100728.81;5007485;28;20034;-71
2020/12/23 05:27:40;;;;;;;14.55;6.65;;;;;;;11.64;100.00;100732.50;4990111;28;20027;-72
2020/12/23 05:30:06;;;;;;;11.80;5.47;;;;;;;11.60;100.00;100727.44;4993017;28;20460;-72
2020/12/23 05:32:36;;;;;;;9.73;6.20;;;;;;;11.60;100.00;100735.50;4977294;28;20120;-71
2020/12/23 05:35:01;;;;;;;13.13;5.60;;;;;;;11.61;100.00;100731.81;4987045;28;20034;-72
2020/12/23 05:37:27;;;;;;;12.85;6.57;;;;;;;11.63;100.00;100717.31;4993553;28;20029;-72
2020/12/23 05:39:52;;;;;;;10.15;6.07;;;;;;;11.71;100.00;100716.81;4987729;28;20137;-72
2020/12/23 05:42:19;;;;;;;13.68;6.47;;;;;;;11.65;100.00;100722.59;4974494;28;20393;-73
2020/12/23 05:44:56;;;;;;;18.27;6.78;;;;;;;11.62;100.00;100712.91;4978193;28;20490;-72
2020/12/23 05:47:26;;;;;;;10.13;5.82;;;;;;;11.70;100.00;100710.56;4989622;28;20515;-72
2020/12/23 05:49:53;;;;;;;12.00;6.65;;;;;;;11.75;100.00;100702.22;4990577;28;20104;-72
2020/12/23 05:52:23;;;;;;;14.20;6.93;;;;;;;11.72;100.00;100697.88;5002894;28;20042;-72
2020/12/23 05:54:51;;;;;;;14.88;6.93;;;;;;;11.72;100.00;100691.66;4990388;28;20049;-72
2020/12/23 05:57:16;;;;;;;15.00;7.00;;;;;;;11.64;100.00;100694.00;4983669;28;20030;-72
2020/12/23 05:59:42;;;;;;;14.13;7.00;;;;;;;11.60;100.00;100693.31;4972603;28;20041;-72
2020/12/23 06:02:11;;;;;;;11.60;7.20;;;;;;;11.52;100.00;100690.31;4989082;28;20407;-72
2020/12/23 06:04:41;;;;;;;16.17;7.22;;;;;;;11.48;100.00;100693.34;4990055;28;20030;-72
2020/12/23 06:07:07;;;;;;;13.57;6.93;;;;;;;11.47;100.00;100692.47;4986026;28;20526;-72
2020/12/23 06:09:38;;;;;;;10.60;6.55;;;;;;;11.53;100.00;100692.06;4990223;28;20038;-72
2020/12/23 06:12:24;;;;;;;16.60;6.70;;;;;;;11.54;100.00;100693.75;4985955;28;20041;-72
2020/12/23 06:14:56;;;;;;;11.85;5.50;;;;;;;11.48;100.00;100694.16;4990086;28;20547;-72
2020/12/23 06:17:24;;;;;;;12.80;6.80;;;;;;;11.45;100.00;100688.16;4990747;28;20046;-72
2020/12/23 06:19:53;;;;;;;12.75;6.35;;;;;;;11.42;100.00;100683.00;4990205;28;20038;-72
2020/12/23 06:22:19;;;;;;;12.85;6.47;;;;;;;11.51;100.00;100679.69;4994639;28;20088;-72
2020/12/23 06:24:45;;;;;;;8.18;5.47;;;;;;;11.61;100.00;100672.69;4987374;28;20038;-72
2020/12/23 06:27:11;;;;;;;11.95;5.68;;;;;;;11.47;100.00;100678.19;4993594;28;20070;-72
2020/12/23 06:29:39;;;;;;;12.93;5.60;;;;;;;11.41;100.00;100673.22;4971633;28;20068;-72
2020/12/23 06:32:05;;;;;;;10.55;5.55;;;;;;;11.39;100.00;100673.31;4987387;28;20497;-72
2020/12/23 06:34:34;;;;;;;12.02;5.60;;;;;;;11.35;100.00;100667.31;4990514;28;20376;-72
2020/12/23 06:37:00;;;;;;;7.85;5.10;;;;;;;11.35;100.00;100672.69;4990858;28;20060;-72
2020/12/23 06:39:31;;;;;;;7.95;5.50;;;;;;;11.34;100.00;100679.00;4987982;28;20038;-72
2020/12/23 06:41:59;;;;;;;7.72;4.95;;;;;;;11.32;100.00;100678.25;4988618;28;20031;-72
2020/12/23 06:44:48;;;;;;;9.20;6.03;;;;;;;11.33;100.00;100679.09;5008136;28;20034;-72
2020/12/23 06:47:17;;;;;;;10.60;6.13;;;;;;;11.29;100.00;100678.44;4976877;28;20056;-72
2020/12/23 06:49:50;;;;;;;11.93;5.95;;;;;;;11.27;100.00;100683.06;4974104;28;20474;-74
2020/12/23 06:52:21;;;;;;;10.27;6.22;;;;;;;11.26;100.00;100677.81;4970190;28;20048;-72
2020/12/23 06:54:48;;;;;;;10.85;6.13;;;;;;;11.25;100.00;100676.94;4990291;28;20034;-72
2020/12/23 06:57:35;;;;;;;9.40;5.88;;;;;;;11.24;100.00;100677.88;4991501;28;20030;-72
2020/12/23 07:00:07;;;;;;;13.30;6.50;;;;;;;11.25;100.00;100676.06;4991292;28;20057;-72
2020/12/23 07:02:49;;;;;;;9.27;5.47;;;;;;;11.23;100.00;100669.97;4988048;28;20449;-72
2020/12/23 07:05:33;;;;;;;8.63;5.53;;;;;;;11.20;100.00;100668.31;4986539;28;20034;-72
2020/12/23 07:08:06;;;;;;;10.50;5.53;;;;;;;11.21;100.00;100675.44;4988735;28;20065;-72
2020/12/23 07:10:33;;;;;;;8.35;4.55;;;;;;;11.18;100.00;100664.88;4985894;28;20550;-72
2020/12/23 07:13:09;;;;;;;8.88;4.82;;;;;;;11.24;100.00;100675.22;4991508;28;20410;-72
2020/12/23 07:15:37;;;;;;;8.25;4.90;;;;;;;11.23;100.00;100673.47;5002923;28;20046;-72
2020/12/23 07:18:26;;;;;;;7.43;5.22;;;;;;;11.23;100.00;100681.53;4987879;28;20117;-72
2020/12/23 07:20:58;;;;;;;7.10;4.47;;;;;;;11.22;100.00;100682.53;4983354;28;20054;-72
2020/12/23 07:23:23;;;;;;;8.82;4.07;;;;;;;11.38;100.00;100670.72;4987005;28;20030;-72
2020/12/23 07:25:54;;;;;;;7.10;4.05;;;;;;;11.32;100.00;100662.13;4994933;28;20525;-72
2020/12/23 07:28:25;;;;;;;5.45;3.10;;;;;;;11.41;100.00;100655.28;4984060;28;20042;-72
2020/12/23 07:30:50;;;;;;;6.63;3.83;;;;;;;11.55;100.00;100670.41;4995208;28;20038;-72
2020/12/23 07:33:18;;;;;;;8.02;2.90;;;;;;;11.44;100.00;100671.16;4991721;28;20044;-72
2020/12/23 07:35:46;;;;;;;9.05;3.58;;;;;;;11.47;100.00;100659.34;4971928;28;20048;-72
2020/12/23 07:38:12;;;;;;;9.57;2.83;;;;;;;11.53;100.00;100664.31;4989164;28;20065;-72
2020/12/23 07:40:38;;;;;;;6.60;2.70;;;;;;;11.44;100.00;100670.31;4983402;28;20042;-72
2020/12/23 07:43:04;;;;;;;3.53;2.25;;;;;;;11.39;100.00;100667.06;5002324;28;20032;-72
2020/12/23 07:45:31;;;;;;;6.85;2.80;;;;;;;11.34;100.00;100684.38;4989559;28;20117;-72
2020/12/23 07:48:06;;;;;;;5.05;2.90;;;;;;;11.31;100.00;100676.53;4987759;28;20030;-72
2020/12/23 07:50:43;;;;;;;4.07;2.63;;;;;;;11.29;100.00;100670.38;4989804;28;20076;-72
2020/12/23 07:53:13;;;;;;;7.20;3.15;;;;;;;11.27;100.00;100675.00;4989778;28;20037;-72
2020/12/23 07:55:41;;;;;;;4.40;2.90;;;;;;;11.28;100.00;100670.50;4975541;28;20042;-72
2020/12/23 07:58:06;;;;;;;9.77;3.42;;;;;;;11.26;100.00;100675.97;4988694;28;20468;-72
2020/12/23 08:00:32;;;;;;;5.80;3.63;;;;;;;11.30;100.00;100684.66;4980988;28;20113;-72
2020/12/23 08:02:58;;;;;;;7.15;3.55;;;;;;;11.27;100.00;100675.00;4991797;28;20030;-72
2020/12/23 08:05:23;;;;;;;5.50;3.55;;;;;;;11.26;100.00;100675.09;4989057;28;20033;-72
2020/12/23 08:07:50;;;;;;;20.20;8.43;;;;;;;11.33;100.00;100663.84;4992895;28;20556;-73
2020/12/23 08:10:18;;;;;;;8.88;4.60;;;;;;;11.33;100.00;100663.84;4984242;28;20438;-72
2020/12/23 08:12:54;;;;;;;8.38;4.38;;;;;;;11.30;100.00;100660.50;5006949;28;20565;-72
2020/12/23 08:15:19;;;;;;;9.60;3.83;;;;;;;11.26;100.00;100657.16;4971951;28;20030;-72
2020/12/23 08:17:45;;;;;;;7.35;3.90;;;;;;;11.24;100.00;100651.03;4976931;28;20512;-72
2020/12/23 08:20:15;;;;;;;7.63;3.53;;;;;;;11.22;100.00;100652.97;4993269;28;20034;-72
2020/12/23 08:22:43;;;;;;;7.90;4.40;;;;;;;11.21;100.00;100653.94;4973524;28;20817;-72
2020/12/23 08:25:15;;;;;;;9.55;3.80;;;;;;;11.22;100.00;100654.81;4992726;28;20034;-72
2020/12/23 08:27:46;;;;;;;5.53;3.22;;;;;;;11.20;100.00;100662.97;4994292;28;20085;-72
2020/12/23 08:30:16;;;;;;;6.07;3.50;;;;;;;11.18;100.00;100662.19;4992714;28;20034;-72
2020/12/23 08:32:45;;;;;;;5.13;3.47;;;;;;;11.16;100.00;100658.75;4976820;28;20042;-72
2020/12/23 08:35:11;;;;;;;5.25;3.40;;;;;;;11.14;100.00;100655.31;4988640;28;20086;-72
2020/12/23 08:37:37;;;;;;;5.47;3.47;;;;;;;11.16;100.00;100661.44;4973247;28;20443;-72
2020/12/23 08:40:04;;;;;;;8.32;3.80;;;;;;;11.17;100.00;100662.31;4955777;28;20557;-72
2020/12/23 08:42:30;;;;;;;7.05;3.70;;;;;;;11.21;100.00;100655.75;5003214;28;20038;-72
2020/12/23 08:44:56;;;;;;;8.70;3.55;;;;;;;11.22;100.00;100663.72;4989431;28;20449;-72
2020/12/23 08:47:26;;;;;;;6.00;3.60;;;;;;;11.20;100.00;100667.47;5003547;28;20061;-72
2020/12/23 08:49:54;;;;;;;9.55;3.50;;;;;;;11.19;100.00;100655.00;4991891;28;20113;-72
2020/12/23 08:52:20;;;;;;;7.40;4.25;;;;;;;11.21;100.00;100659.31;4977349;28;20565;-72
2020/12/23 08:54:46;;;;;;;8.02;4.07;;;;;;;11.22;100.00;100655.66;4976606;28;20133;-72
2020/12/23 08:57:37;;;;;;;7.50;3.40;;;;;;;11.23;100.00;100652.00;4993056;28;20395;-72
2020/12/23 09:00:03;;;;;;;7.40;3.72;;;;;;;11.25;100.00;100651.88;4987161;28;20188;-72
2020/12/23 09:02:35;;;;;;;4.80;3.10;;;;;;;11.30;100.00;100642.53;4977594;28;20120;-72
2020/12/23 09:05:17;;;;;;;8.82;4.22;;;;;;;11.30;100.00;100637.16;4971263;28;20065;-72
2020/12/23 09:07:43;;;;;;;5.18;3.55;;;;;;;11.32;100.00;100645.13;4983360;28;20040;-72
2020/12/23 09:10:12;;;;;;;6.80;3.22;;;;;;;11.32;100.00;100637.94;4993841;28;20117;-75
2020/12/23 09:12:37;;;;;;;10.57;4.13;;;;;;;11.32;100.00;100639.75;4983073;28;20034;-72
2020/12/23 09:15:12;;;;;;;10.55;4.15;;;;;;;11.33;100.00;100636.97;5014512;28;20583;-72
2020/12/23 09:17:37;;;;;;;9.70;4.72;;;;;;;11.38;100.00;100636.66;4989335;28;20060;-72
2020/12/23 09:20:04;;;;;;;11.02;5.28;;;;;;;11.40;100.00;100636.56;4985880;28;20061;-72
2020/12/23 09:22:31;;;;;;;10.40;4.50;;;;;;;11.51;100.00;100637.53;4994396;28;20039;-72
2020/12/23 09:25:11;;;;;;;17.33;4.93;;;;;;;11.51;100.00;100640.22;4990338;28;20026;-72
2020/12/23 09:27:37;;;;;;;12.55;5.55;;;;;;;11.51;100.00;100639.34;4973555;28;20033;-72
2020/12/23 09:30:04;;;;;;;10.07;4.90;;;;;;;11.55;100.00;100630.97;4989233;28;20065;-72
2020/12/23 09:32:29;;;;;;;8.52;5.18;;;;;;;11.60;100.00;100633.34;4990090;28;20057;-72
2020/12/23 09:35:18;;;;;;;11.35;5.90;;;;;;;11.74;100.00;100623.38;4988937;28;20031;-72
2020/12/23 09:37:44;;;;;;;15.35;6.68;;;;;;;11.70;100.00;100629.03;4998463;28;20026;-72
2020/12/23 09:40:11;;;;;;;15.18;5.75;;;;;;;11.71;100.00;100630.75;4991408;28;20038;-72
2020/12/23 09:42:36;;;;;;;7.38;4.47;;;;;;;11.67;100.00;100629.25;4990085;28;20034;-72
2020/12/23 09:45:02;;;;;;;8.63;5.05;;;;;;;11.66;100.00;100628.41;4994920;28;20025;-72
2020/12/23 09:47:28;;;;;;;15.93;5.25;;;;;;;11.68;100.00;100614.84;4993319;28;20077;-72
2020/12/23 09:49:53;;;;;;;12.23;4.85;;;;;;;11.73;100.00;100602.81;4977789;28;20038;-72
2020/12/23 09:52:18;;;;;;;11.27;4.57;;;;;;;11.73;100.00;100605.50;4995511;28;20089;-72
2020/12/23 09:54:44;;;;;;;9.68;5.13;;;;;;;11.84;100.00;100593.16;4974559;28;20038;-72
2020/12/23 09:57:09;;;;;;;9.55;4.75;;;;;;;11.92;100.00;100591.59;4980562;28;20763;-72
2020/12/23 09:59:35;;;;;;;8.68;4.75;;;;;;;11.87;100.00;100592.91;4957811;28;20351;-72
2020/12/23 10:02:00;;;;;;;10.15;4.65;;;;;;;11.96;100.00;100585.06;4973510;28;20038;-72
2020/12/23 10:04:27;;;;;;;12.98;5.20;;;;;;;11.91;100.00;100584.50;4984443;28;20546;-72
2020/12/23 10:06:53;;;;;;;10.82;4.32;;;;;;;11.93;100.00;100587.09;4990074;28;20042;-72
2020/12/23 10:09:18;;;;;;;12.18;4.90;;;;;;;11.96;100.00;100579.69;4974869;28;20061;-72
2020/12/23 10:11:44;;;;;;;21.42;7.85;;;;;;;12.04;100.00;100569.19;4991925;28;20617;-72
2020/12/23 10:14:09;;;;;;;15.93;6.93;;;;;;;12.02;100.00;100565.78;4962039;28;20038;-72
2020/12/23 10:16:35;;;;;;;12.35;5.07;;;;;;;12.02;100.00;100556.84;4965450;28;20038;-72
2020/12/23 10:19:01;;;;;;;26.40;8.98;;;;;;;12.14;100.00;100542.50;5003511;28;20026;-72
2020/12/23 10:21:27;;;;;;;43.55;16.52;;;;;;;12.06;100.00;100539.50;4994515;28;20041;-72
2020/12/23 10:23:53;;;;;;;17.17;9.13;;;;;;;12.14;100.00;100543.34;4999562;28;20054;-72
2020/12/23 10:26:19;;;;;;;13.63;8.07;;;;;;;12.11;100.00;100531.94;4990530;28;20031;-72
2020/12/23 10:28:45;;;;;;;13.55;6.63;;;;;;;12.10;100.00;100531.09;4990671;28;20035;-72
2020/12/23 10:31:11;;;;;;;11.38;6.35;;;;;;;12.08;100.00;100526.81;4999060;28;20109;-72
2020/12/23 10:33:37;;;;;;;14.00;5.05;;;;;;;12.23;100.00;100528.34;4996615;28;20061;-72
2020/12/23 10:36:07;;;;;;;13.93;6.22;;;;;;;12.23;100.00;100522.97;4989752;28;20045;-72
2020/12/23 10:38:33;;;;;;;16.52;7.80;;;;;;;12.30;100.00;100521.53;4989142;28;20027;-72
2020/12/23 10:40:58;;;;;;;14.05;5.55;;;;;;;12.23;100.00;100517.59;4976991;28;20041;-72
2020/12/23 10:43:24;;;;;;;9.70;4.20;;;;;;;12.18;100.00;100500.94;4990335;28;20391;-72
2020/12/23 10:45:49;;;;;;;7.70;3.40;;;;;;;12.30;100.00;100499.16;4988353;28;20033;-72
2020/12/23 10:48:16;;;;;;;5.03;3.00;;;;;;;12.35;100.00;100491.56;4980519;28;20129;-72
2020/12/23 10:50:44;;;;;;;7.20;3.95;;;;;;;12.29;100.00;100487.53;4978799;28;20034;-72
2020/12/23 10:53:10;;;;;;;8.88;3.25;;;;;;;12.25;100.00;100483.34;4993375;28;20034;-72
2020/12/23 10:55:36;;;;;;;5.50;2.40;;;;;;;12.31;100.00;100482.03;4990635;28;20041;-72
2020/12/23 10:58:01;;;;;;;8.52;4.15;;;;;;;12.28;100.00;100479.59;4989204;28;20115;-74
2020/12/23 11:00:26;;;;;;;6.88;2.40;;;;;;;12.33;100.00;100478.25;4988296;28;20030;-72
2020/12/23 11:02:52;;;;;;;4.07;2.67;;;;;;;12.26;100.00;100471.63;4988597;28;20417;-71
2020/12/23 11:05:18;;;;;;;4.95;2.40;;;;;;;12.20;100.00;100473.91;4990426;28;20037;-71
2020/12/23 11:07:44;;;;;;;4.55;2.50;;;;;;;12.27;100.00;100467.09;4990261;28;20038;-72
2020/12/23 11:10:09;;;;;;;6.75;3.00;;;;;;;12.26;100.00;100462.69;4991239;28;20561;-72